createdAt,value
2023-06-22T00:00:12.121Z,99.90
2023-06-22T00:02:41.592Z,99.90
2023-06-22T00:05:09.286Z,99.90
2023-06-22T00:07:36.040Z,99.90
2023-06-22T00:10:02.751Z,99.90
2023-06-22T00:12:29.517Z,99.90
2023-06-22T00:14:57.578Z,99.90
2023-06-22T00:17:24.330Z,99.90
2023-06-22T00:19:54.658Z,99.90
2023-06-22T00:22:30.306Z,99.90
2023-06-22T00:24:57.597Z,99.90
2023-06-22T00:27:24.296Z,99.90
2023-06-22T00:29:50.990Z,99.90
2023-06-22T00:32:18.650Z,99.90
2023-06-22T00:34:48.058Z,99.90
2023-06-22T00:37:14.763Z,99.90
2023-06-22T00:39:41.523Z,99.90
2023-06-22T00:42:08.226Z,99.90
2023-06-22T00:44:36.105Z,99.90
2023-06-22T00:47:02.802Z,99.90
2023-06-22T00:49:29.485Z,99.90
2023-06-22T00:51:56.231Z,99.90
2023-06-22T00:54:25.728Z,99.90
2023-06-22T00:56:55.223Z,99.90
2023-06-22T00:59:21.922Z,99.90
2023-06-22T01:01:48.552Z,99.90
2023-06-22T01:04:15.270Z,99.90
2023-06-22T01:06:41.921Z,99.90
2023-06-22T01:09:08.711Z,99.90
2023-06-22T01:11:35.344Z,99.90
2023-06-22T01:14:02.095Z,99.90
2023-06-22T01:16:29.899Z,99.90
2023-06-22T01:18:56.590Z,99.90
2023-06-22T01:21:23.256Z,99.90
2023-06-22T01:23:51.197Z,99.90
2023-06-22T01:26:22.138Z,99.90
2023-06-22T01:28:49.014Z,99.90
2023-06-22T01:31:15.922Z,99.90
2023-06-22T01:33:42.620Z,99.90
2023-06-22T01:36:09.571Z,99.90
2023-06-22T01:38:37.610Z,99.90
2023-06-22T01:41:04.290Z,99.90
2023-06-22T01:43:30.977Z,99.90
2023-06-22T01:45:57.837Z,99.90
2023-06-22T01:48:24.616Z,99.90
2023-06-22T01:50:51.306Z,99.90
2023-06-22T01:53:18.026Z,99.90
2023-06-22T01:56:04.515Z,99.90
2023-06-22T01:58:31.446Z,99.90
2023-06-22T02:00:58.939Z,99.90
2023-06-22T02:03:25.743Z,99.90
2023-06-22T02:05:54.730Z,99.90
2023-06-22T02:08:22.349Z,99.90
2023-06-22T02:10:49.107Z,99.90
2023-06-22T02:13:15.811Z,99.90
2023-06-22T02:15:42.723Z,99.90
2023-06-22T02:18:12.703Z,99.90
2023-06-22T02:20:39.365Z,99.90
2023-06-22T02:23:06.109Z,99.90
2023-06-22T02:25:35.651Z,99.90
2023-06-22T02:28:02.378Z,99.90
2023-06-22T02:30:29.311Z,99.90
2023-06-22T02:33:00.367Z,99.90
2023-06-22T02:35:32.815Z,99.90
2023-06-22T02:38:01.166Z,99.90
2023-06-22T02:40:28.459Z,99.90
2023-06-22T02:42:56.810Z,99.90
2023-06-22T02:45:42.567Z,99.90
2023-06-22T02:48:09.319Z,99.90
2023-06-22T02:50:35.973Z,99.90
2023-06-22T02:53:04.095Z,99.90
2023-06-22T02:55:36.711Z,99.90
2023-06-22T02:58:06.027Z,99.90
2023-06-22T03:00:35.606Z,99.90
2023-06-22T03:03:02.483Z,99.90
2023-06-22T03:05:30.603Z,99.90
2023-06-22T03:07:59.539Z,99.90
2023-06-22T03:10:28.236Z,99.90
2023-06-22T03:12:55.246Z,99.90
2023-06-22T03:15:23.590Z,99.90
2023-06-22T03:17:51.807Z,99.90
2023-06-22T03:20:18.564Z,99.90
2023-06-22T03:22:45.296Z,99.90
2023-06-22T03:25:15.957Z,99.90
2023-06-22T03:27:46.152Z,99.90
2023-06-22T03:30:12.898Z,99.90
2023-06-22T03:32:39.736Z,99.90
2023-06-22T03:35:08.369Z,99.90
2023-06-22T03:37:39.449Z,99.90
2023-06-22T03:40:09.165Z,99.90
2023-06-22T03:42:37.356Z,99.90
2023-06-22T03:45:05.318Z,99.90
2023-06-22T03:47:32.677Z,99.90
2023-06-22T03:49:59.670Z,99.90
2023-06-22T03:52:26.519Z,99.90
2023-06-22T03:55:11.932Z,99.90
2023-06-22T03:57:38.629Z,99.90
2023-06-22T04:00:09.049Z,99.90
2023-06-22T04:02:42.236Z,99.90
2023-06-22T04:05:09.286Z,99.90
2023-06-22T04:07:38.118Z,99.90
2023-06-22T04:10:04.855Z,99.90
2023-06-22T04:12:31.502Z,99.90
2023-06-22T04:14:58.766Z,99.90
2023-06-22T04:17:26.274Z,99.90
2023-06-22T04:19:53.074Z,99.90
2023-06-22T04:22:19.729Z,99.90
2023-06-22T04:24:47.624Z,99.90
2023-06-22T04:27:14.315Z,99.90
2023-06-22T04:29:49.769Z,99.90
2023-06-22T04:32:16.742Z,99.90
2023-06-22T04:34:44.496Z,99.90
2023-06-22T04:37:16.521Z,99.90
2023-06-22T04:39:43.415Z,99.90
2023-06-22T04:42:10.084Z,99.90
2023-06-22T04:44:36.820Z,99.90
2023-06-22T04:47:09.273Z,99.90
2023-06-22T04:49:38.995Z,99.90
2023-06-22T04:52:05.719Z,99.90
2023-06-22T04:54:36.513Z,99.90
2023-06-22T04:57:03.201Z,99.90
2023-06-22T04:59:30.910Z,99.90
2023-06-22T05:01:57.643Z,99.90
2023-06-22T05:04:25.025Z,99.90
2023-06-22T05:06:52.007Z,99.90
2023-06-22T05:09:18.672Z,99.90
2023-06-22T05:11:45.343Z,99.90
2023-06-22T05:14:11.999Z,99.90
2023-06-22T05:16:38.663Z,99.90
2023-06-22T05:19:05.577Z,99.90
2023-06-22T05:21:32.229Z,99.90
2023-06-22T05:24:01.281Z,99.90
2023-06-22T05:26:28.270Z,99.90
2023-06-22T05:28:55.011Z,99.90
2023-06-22T05:31:21.760Z,99.90
2023-06-22T05:33:48.827Z,99.90
2023-06-22T05:36:15.587Z,99.90
2023-06-22T05:38:42.250Z,99.90
2023-06-22T05:41:08.910Z,99.90
2023-06-22T05:43:35.754Z,99.90
2023-06-22T05:46:03.580Z,99.90
2023-06-22T05:48:30.300Z,99.90
2023-06-22T05:50:56.956Z,99.90
2023-06-22T05:53:23.650Z,99.90
2023-06-22T05:55:51.696Z,99.90
2023-06-22T05:58:18.501Z,99.90
2023-06-22T06:00:45.184Z,99.90
2023-06-22T06:03:13.509Z,99.90
2023-06-22T06:08:46.445Z,99.90
2023-06-22T06:11:13.127Z,99.90
2023-06-22T06:13:39.858Z,99.90
2023-06-22T06:16:06.578Z,99.90
2023-06-22T06:18:33.228Z,99.90
2023-06-22T06:20:59.870Z,99.90
2023-06-22T06:23:26.561Z,99.90
2023-06-22T06:25:54.608Z,99.90
2023-06-22T06:28:21.300Z,99.90
2023-06-22T06:30:48.366Z,99.90
2023-06-22T06:33:15.370Z,99.90
2023-06-22T06:35:45.021Z,99.90
2023-06-22T06:38:11.851Z,99.90
2023-06-22T06:40:38.514Z,99.90
2023-06-22T06:43:05.144Z,99.90
2023-06-22T06:45:34.142Z,99.90
2023-06-22T06:48:00.968Z,99.90
2023-06-22T06:50:27.932Z,99.90
2023-06-22T06:52:55.039Z,99.90
2023-06-22T06:55:26.340Z,99.90
2023-06-22T06:57:53.669Z,99.90
2023-06-22T07:00:20.590Z,99.90
2023-06-22T07:02:49.525Z,99.90
2023-06-22T07:05:16.650Z,99.90
2023-06-22T07:07:43.866Z,99.90
2023-06-22T07:10:10.777Z,99.90
2023-06-22T07:12:37.442Z,99.90
2023-06-22T07:15:04.505Z,99.90
2023-06-22T07:17:31.211Z,99.90
2023-06-22T07:19:57.932Z,99.90
2023-06-22T07:22:24.651Z,99.90
2023-06-22T07:24:52.599Z,99.90
2023-06-22T07:27:22.631Z,99.90
2023-06-22T07:29:49.451Z,99.90
2023-06-22T07:32:16.229Z,99.90
2023-06-22T07:34:43.038Z,99.90
2023-06-22T07:37:09.831Z,99.90
2023-06-22T07:39:36.547Z,99.90
2023-06-22T07:42:03.292Z,99.90
2023-06-22T07:44:31.056Z,99.90
2023-06-22T07:46:57.781Z,99.90
2023-06-22T07:49:24.458Z,99.90
2023-06-22T07:51:51.137Z,99.90
2023-06-22T07:54:18.478Z,99.90
2023-06-22T07:56:45.206Z,99.90
2023-06-22T07:59:11.887Z,99.90
2023-06-22T08:01:38.665Z,99.90
2023-06-22T08:04:07.023Z,99.90
2023-06-22T08:06:33.957Z,99.90
2023-06-22T08:09:04.476Z,99.90
2023-06-22T08:11:31.200Z,99.90
2023-06-22T08:13:59.621Z,99.90
2023-06-22T08:16:26.854Z,99.90
2023-06-22T08:18:53.611Z,99.90
2023-06-22T08:21:20.320Z,99.90
2023-06-22T08:23:46.956Z,99.90
2023-06-22T08:26:13.865Z,99.90
2023-06-22T08:28:40.736Z,99.90
2023-06-22T08:31:07.424Z,99.90
2023-06-22T08:33:34.113Z,99.90
2023-06-22T08:36:03.116Z,99.90
2023-06-22T08:38:29.848Z,99.90
2023-06-22T08:40:56.534Z,99.90
2023-06-22T08:43:23.213Z,99.90
2023-06-22T08:45:50.216Z,99.90
2023-06-22T08:48:16.960Z,99.90
2023-06-22T08:50:43.780Z,99.90
2023-06-22T08:53:10.445Z,99.90
2023-06-22T08:55:38.535Z,99.90
2023-06-22T08:58:05.221Z,99.90
2023-06-22T09:00:34.062Z,99.90
2023-06-22T09:03:01.064Z,99.90
2023-06-22T09:05:30.354Z,99.90
2023-06-22T09:07:57.331Z,99.90
2023-06-22T09:10:24.144Z,99.90
2023-06-22T09:12:50.828Z,99.90
2023-06-22T09:15:27.201Z,99.90
2023-06-22T09:17:55.552Z,99.90
2023-06-22T09:20:22.365Z,99.90
2023-06-22T09:22:49.168Z,99.90
2023-06-22T09:25:18.112Z,99.90
2023-06-22T09:27:44.825Z,99.90
2023-06-22T09:30:11.600Z,99.90
2023-06-22T09:32:38.429Z,99.90
2023-06-22T09:35:06.817Z,99.90
2023-06-22T09:37:33.626Z,99.90
2023-06-22T09:40:00.349Z,99.90
2023-06-22T09:42:27.041Z,99.90
2023-06-22T09:44:56.768Z,99.90
2023-06-22T09:47:23.571Z,99.90
2023-06-22T09:49:50.244Z,99.90
2023-06-22T09:52:16.919Z,99.90
2023-06-22T09:54:45.791Z,99.90
2023-06-22T09:57:12.641Z,99.90
2023-06-22T09:59:41.047Z,99.90
2023-06-22T10:02:08.312Z,99.90
2023-06-22T10:04:35.471Z,99.90
2023-06-22T10:07:02.418Z,99.90
2023-06-22T10:09:29.136Z,99.90
2023-06-22T10:11:55.841Z,99.90
2023-06-22T10:14:41.302Z,99.90
2023-06-22T10:17:08.663Z,99.90
2023-06-22T10:19:38.049Z,99.90
2023-06-22T10:22:04.823Z,99.90
2023-06-22T10:24:31.821Z,99.90
2023-06-22T10:26:58.523Z,99.90
2023-06-22T10:29:25.253Z,99.90
2023-06-22T10:31:52.044Z,99.90
2023-06-22T10:34:18.897Z,99.90
2023-06-22T10:36:48.377Z,99.90
2023-06-22T10:39:18.816Z,99.90
2023-06-22T10:41:45.585Z,99.90
2023-06-22T10:44:13.300Z,99.90
2023-06-22T10:46:40.070Z,99.90
2023-06-22T10:49:06.873Z,99.90
2023-06-22T10:51:33.775Z,99.90
2023-06-22T10:54:06.454Z,99.90
2023-06-22T10:56:35.159Z,99.90
2023-06-22T10:59:02.941Z,99.90
2023-06-22T11:01:35.055Z,99.90
2023-06-22T11:04:03.255Z,99.90
2023-06-22T11:06:31.228Z,99.90
2023-06-22T11:09:06.497Z,99.40
2023-06-22T11:11:44.630Z,98.30
2023-06-22T11:14:11.398Z,99.00
2023-06-22T11:16:38.079Z,96.40
2023-06-22T11:19:04.805Z,94.30
2023-06-22T11:21:32.186Z,92.60
2023-06-22T11:23:59.834Z,92.70
2023-06-22T11:26:28.598Z,93.80
2023-06-22T11:28:55.262Z,92.30
2023-06-22T11:31:26.398Z,91.50
2023-06-22T11:33:53.811Z,91.60
2023-06-22T11:36:20.841Z,88.60
2023-06-22T11:38:47.664Z,86.50
2023-06-22T11:41:14.444Z,87.10
2023-06-22T11:43:41.141Z,89.30
2023-06-22T11:46:08.075Z,89.20
2023-06-22T11:48:34.805Z,90.30
2023-06-22T11:51:01.871Z,91.50
2023-06-22T11:53:28.767Z,90.00
2023-06-22T11:55:58.730Z,91.70
2023-06-22T11:58:25.426Z,86.30
2023-06-22T12:00:53.562Z,90.00
2023-06-22T12:03:20.780Z,89.40
2023-06-22T12:06:10.640Z,86.60
2023-06-22T12:08:39.207Z,84.30
2023-06-22T12:11:06.015Z,80.90
2023-06-22T12:13:32.788Z,81.40
2023-06-22T12:15:59.636Z,81.20
2023-06-22T12:18:26.348Z,80.00
2023-06-22T12:20:53.034Z,76.50
2023-06-22T12:23:20.858Z,74.70
2023-06-22T12:26:06.277Z,78.10
2023-06-22T12:28:33.030Z,75.20
2023-06-22T12:30:59.753Z,76.90
2023-06-22T12:33:26.473Z,77.10
2023-06-22T12:35:54.381Z,77.70
2023-06-22T12:38:21.145Z,80.40
2023-06-22T12:40:48.376Z,79.70
2023-06-22T12:43:15.119Z,79.80
2023-06-22T12:48:46.201Z,78.80
2023-06-22T12:51:12.887Z,79.00
2023-06-22T12:53:39.623Z,78.10
2023-06-22T12:56:25.283Z,77.10
2023-06-22T12:58:52.053Z,76.60
2023-06-22T13:01:19.460Z,75.40
2023-06-22T13:03:46.293Z,76.30
2023-06-22T13:06:15.144Z,73.60
2023-06-22T13:09:10.788Z,73.80
2023-06-22T13:11:28.670Z,71.60
2023-06-22T13:13:55.344Z,70.90
2023-06-22T13:16:24.350Z,71.40
2023-06-22T13:18:50.997Z,70.00
2023-06-22T13:21:17.639Z,70.20
2023-06-22T13:23:44.309Z,67.70
2023-06-22T13:26:11.231Z,68.20
2023-06-22T13:28:37.901Z,67.90
2023-06-22T13:31:04.645Z,69.00
2023-06-22T13:33:31.366Z,68.40
2023-06-22T13:35:59.467Z,69.70
2023-06-22T13:38:26.150Z,71.40
2023-06-22T13:40:52.948Z,68.50
2023-06-22T13:43:19.576Z,69.20
2023-06-22T13:45:51.470Z,70.70
2023-06-22T13:48:18.220Z,68.30
2023-06-22T13:50:44.873Z,69.40
2023-06-22T13:53:11.575Z,70.50
2023-06-22T13:55:40.414Z,70.80
2023-06-22T13:58:07.123Z,70.50
2023-06-22T14:00:33.992Z,69.80
2023-06-22T14:03:01.178Z,70.80
2023-06-22T14:05:28.996Z,72.40
2023-06-22T14:07:55.731Z,73.80
2023-06-22T14:10:22.468Z,75.70
2023-06-22T14:12:49.807Z,70.30
2023-06-22T14:15:35.666Z,68.60
2023-06-22T14:18:02.406Z,67.30
2023-06-22T14:20:29.335Z,68.30
2023-06-22T14:22:56.480Z,67.10
2023-06-22T14:25:24.422Z,67.10
2023-06-22T14:27:51.178Z,65.80
2023-06-22T14:30:17.972Z,65.40
2023-06-22T14:32:44.658Z,65.60
2023-06-22T14:35:12.814Z,65.90
2023-06-22T14:37:39.496Z,68.80
2023-06-22T14:40:06.185Z,64.70
2023-06-22T14:42:32.891Z,68.00
2023-06-22T14:45:01.870Z,65.60
2023-06-22T14:47:29.615Z,65.90
2023-06-22T14:49:56.396Z,65.50
2023-06-22T14:52:23.164Z,64.80
2023-06-22T14:54:53.563Z,64.90
2023-06-22T14:57:21.184Z,65.10
2023-06-22T14:59:48.370Z,63.90
2023-06-22T15:02:15.398Z,63.30
2023-06-22T15:04:43.296Z,63.70
2023-06-22T15:07:10.045Z,61.00
2023-06-22T15:09:36.815Z,60.40
2023-06-22T15:12:06.840Z,61.30
2023-06-22T15:14:33.676Z,60.10
2023-06-22T15:17:00.546Z,61.30
2023-06-22T15:19:27.214Z,61.80
2023-06-22T15:21:57.460Z,58.40
2023-06-22T15:24:24.252Z,58.00
2023-06-22T15:26:51.889Z,58.90
2023-06-22T15:29:18.589Z,61.30
2023-06-22T15:31:45.353Z,59.40
2023-06-22T15:34:12.050Z,56.90
2023-06-22T15:36:38.712Z,56.70
2023-06-22T15:39:05.470Z,56.90
2023-06-22T15:41:32.276Z,58.70
2023-06-22T15:43:59.019Z,59.80
2023-06-22T15:46:27.977Z,58.50
2023-06-22T15:48:56.426Z,59.40
2023-06-22T15:51:23.646Z,59.70
2023-06-22T15:53:50.279Z,61.00
2023-06-22T15:56:20.156Z,61.70
2023-06-22T15:58:46.834Z,62.20
2023-06-22T16:01:13.542Z,60.90
2023-06-22T16:03:40.422Z,62.50
2023-06-22T16:06:26.585Z,62.30
2023-06-22T16:08:53.299Z,62.80
2023-06-22T16:11:20.068Z,63.10
2023-06-22T16:13:47.220Z,63.90
2023-06-22T16:16:13.950Z,63.30
2023-06-22T16:18:42.464Z,63.10
2023-06-22T16:21:09.213Z,63.10
2023-06-22T16:23:35.925Z,63.40
2023-06-22T16:26:04.002Z,63.90
2023-06-22T16:28:30.736Z,65.90
2023-06-22T16:30:57.442Z,65.80
2023-06-22T16:33:24.219Z,67.20
2023-06-22T16:35:51.019Z,65.90
2023-06-22T16:38:17.722Z,66.80
2023-06-22T16:40:44.472Z,66.60
2023-06-22T16:43:11.143Z,67.40
2023-06-22T16:45:37.986Z,68.80
2023-06-22T16:48:04.945Z,67.30
2023-06-22T16:50:33.033Z,68.00
2023-06-22T16:53:00.030Z,67.90
2023-06-22T16:55:29.541Z,68.50
2023-06-22T16:57:56.366Z,69.80
2023-06-22T17:00:23.020Z,69.80
2023-06-22T17:02:50.251Z,70.60
2023-06-22T17:05:20.260Z,71.30
2023-06-22T17:07:48.754Z,71.30
2023-06-22T17:10:15.502Z,72.00
2023-06-22T17:12:45.003Z,72.40
2023-06-22T17:15:32.558Z,72.70
2023-06-22T17:17:59.395Z,73.40
2023-06-22T17:20:26.118Z,73.80
2023-06-22T17:22:52.841Z,73.80
2023-06-22T17:25:21.238Z,73.60
2023-06-22T17:27:47.941Z,72.00
2023-06-22T17:30:17.549Z,71.90
2023-06-22T17:32:44.339Z,70.80
2023-06-22T17:35:12.373Z,71.70
2023-06-22T17:37:39.066Z,70.90
2023-06-22T17:40:05.840Z,70.50
2023-06-22T17:42:32.579Z,70.70
2023-06-22T17:45:02.418Z,71.80
2023-06-22T17:47:29.130Z,72.00
2023-06-22T17:49:55.817Z,70.50
2023-06-22T17:52:22.651Z,71.40
2023-06-22T17:54:56.413Z,71.70
2023-06-22T17:57:30.168Z,72.40
2023-06-22T17:59:56.868Z,73.10
2023-06-22T18:02:24.240Z,73.90
2023-06-22T18:04:52.403Z,74.80
2023-06-22T18:07:19.106Z,75.00
2023-06-22T18:09:45.761Z,75.40
2023-06-22T18:12:12.513Z,75.90
2023-06-22T18:14:40.806Z,75.60
2023-06-22T18:17:07.506Z,75.90
2023-06-22T18:19:34.316Z,76.90
2023-06-22T18:22:01.050Z,77.50
2023-06-22T18:24:29.840Z,77.20
2023-06-22T18:26:56.537Z,77.30
2023-06-22T18:29:23.230Z,77.50
2023-06-22T18:31:49.954Z,77.80
2023-06-22T18:34:16.659Z,77.10
2023-06-22T18:36:43.413Z,75.80
2023-06-22T18:39:10.088Z,76.60
2023-06-22T18:41:36.862Z,76.40
2023-06-22T18:44:03.559Z,76.80
2023-06-22T18:49:33.896Z,76.60
2023-06-22T18:52:02.499Z,79.30
2023-06-22T18:54:30.409Z,83.20
2023-06-22T18:56:57.203Z,87.00
2023-06-22T18:59:23.926Z,88.50
2023-06-22T19:01:50.608Z,88.30
2023-06-22T19:04:20.523Z,90.00
2023-06-22T19:06:47.328Z,91.00
2023-06-22T19:09:16.643Z,91.80
2023-06-22T19:11:43.370Z,92.50
2023-06-22T19:14:10.364Z,93.30
2023-06-22T19:16:37.311Z,92.90
2023-06-22T19:19:04.053Z,93.40
2023-06-22T19:21:30.736Z,94.90
2023-06-22T19:23:57.420Z,94.40
2023-06-22T19:26:24.768Z,94.60
2023-06-22T19:28:51.625Z,94.50
2023-06-22T19:31:18.357Z,95.30
2023-06-22T19:33:45.522Z,95.90
2023-06-22T19:36:14.422Z,96.10
2023-06-22T19:38:41.302Z,96.20
2023-06-22T19:41:08.143Z,97.20
2023-06-22T19:43:34.944Z,98.50
2023-06-22T19:46:02.755Z,98.30
2023-06-22T19:48:30.012Z,99.90
2023-06-22T19:50:56.726Z,99.10
2023-06-22T19:53:23.612Z,99.90
2023-06-22T19:55:51.570Z,99.90
2023-06-22T19:58:18.622Z,99.90
2023-06-22T20:00:45.520Z,99.90
2023-06-22T20:03:12.538Z,99.90
2023-06-22T20:08:30.190Z,99.90
2023-06-22T20:10:56.843Z,99.90
2023-06-22T20:13:23.527Z,99.90
2023-06-22T20:15:53.413Z,99.90
2023-06-22T20:18:22.190Z,99.90
2023-06-22T20:20:48.907Z,99.90
2023-06-22T20:23:15.734Z,99.90
2023-06-22T20:25:44.002Z,99.90
2023-06-22T20:28:10.862Z,99.90
2023-06-22T20:30:37.655Z,99.90
2023-06-22T20:33:06.978Z,99.90
2023-06-22T20:35:35.035Z,99.90
2023-06-22T20:38:01.816Z,99.90
2023-06-22T20:40:28.708Z,99.90
2023-06-22T20:42:55.519Z,99.90
2023-06-22T20:45:22.774Z,99.90
2023-06-22T20:47:49.495Z,99.90
2023-06-22T20:50:16.172Z,99.90
2023-06-22T20:52:43.263Z,99.90
2023-06-22T20:55:11.281Z,99.90
2023-06-22T20:57:38.054Z,99.90
2023-06-22T21:00:08.071Z,99.90
2023-06-22T21:02:35.224Z,99.90
2023-06-22T21:05:03.233Z,99.90
2023-06-22T21:07:30.007Z,99.90
2023-06-22T21:09:56.919Z,99.90
2023-06-22T21:12:23.783Z,99.90
2023-06-22T21:14:52.746Z,99.90
2023-06-22T21:17:19.983Z,99.90
2023-06-22T21:19:46.765Z,99.90
2023-06-22T21:22:13.504Z,99.90
2023-06-22T21:25:01.186Z,99.90
2023-06-22T21:27:27.922Z,99.90
2023-06-22T21:29:55.441Z,99.90
2023-06-22T21:32:23.416Z,99.90
2023-06-22T21:34:51.381Z,99.90
2023-06-22T21:37:18.057Z,99.90
2023-06-22T21:39:44.742Z,99.90
2023-06-22T21:42:11.603Z,99.90
2023-06-22T21:44:58.163Z,99.90
2023-06-22T21:47:26.114Z,99.90
2023-06-22T21:49:52.962Z,99.90
2023-06-22T21:52:19.736Z,99.90
2023-06-22T21:54:48.713Z,99.90
2023-06-22T21:57:15.893Z,99.90
2023-06-22T21:59:42.592Z,99.90
2023-06-22T22:02:09.345Z,99.90
2023-06-22T22:04:38.829Z,99.90
2023-06-22T22:07:06.126Z,99.90
2023-06-22T22:09:33.013Z,99.90
2023-06-22T22:12:00.876Z,99.90
2023-06-22T22:14:28.684Z,99.90
2023-06-22T22:16:55.439Z,99.90
2023-06-22T22:19:22.109Z,99.90
2023-06-22T22:21:48.807Z,99.90
2023-06-22T22:24:17.616Z,99.90
2023-06-22T22:26:44.257Z,99.90
2023-06-22T22:29:10.961Z,99.90
2023-06-22T22:31:40.823Z,99.90
2023-06-22T22:34:07.563Z,99.90
2023-06-22T22:36:34.598Z,99.90
2023-06-22T22:39:01.892Z,99.90
2023-06-22T22:41:28.678Z,99.90
2023-06-22T22:43:55.367Z,99.90
2023-06-22T22:46:24.179Z,99.90
2023-06-22T22:48:51.056Z,99.90
2023-06-22T22:51:17.769Z,99.90
2023-06-22T22:53:44.834Z,99.90
2023-06-22T22:56:11.961Z,99.90
2023-06-22T22:58:38.682Z,99.90
2023-06-22T23:01:05.417Z,99.90
2023-06-22T23:03:32.191Z,99.90
2023-06-22T23:05:59.281Z,99.90
2023-06-22T23:08:27.581Z,99.90
2023-06-22T23:10:54.281Z,99.90
2023-06-22T23:13:21.051Z,99.90
2023-06-22T23:15:51.767Z,99.90
2023-06-22T23:18:19.389Z,99.90
2023-06-22T23:20:46.134Z,99.90
2023-06-22T23:23:12.837Z,99.90
2023-06-22T23:25:39.728Z,99.90
2023-06-22T23:28:07.054Z,99.90
2023-06-22T23:30:33.771Z,99.90
2023-06-22T23:33:00.495Z,99.90
2023-06-22T23:35:29.882Z,99.90
2023-06-22T23:37:56.769Z,99.90
2023-06-22T23:40:23.465Z,99.90
2023-06-22T23:42:50.157Z,99.90
2023-06-22T23:45:18.732Z,99.90
2023-06-22T23:47:45.842Z,99.90
2023-06-22T23:50:13.094Z,99.90
2023-06-22T23:52:39.844Z,99.90
2023-06-22T23:55:25.265Z,99.90
2023-06-22T23:57:58.365Z,99.90
